sensor_id;sensor_type;location;lat;lon;timestamp;temperature;humidity
23556;DHT22;11956;53.184;8.578;2022-10-16T00:00:54;13.40;99.90
23556;DHT22;11956;53.184;8.578;2022-10-16T00:03:56;13.40;99.90
23556;DHT22;11956;53.184;8.578;2022-10-16T00:06:58;13.30;99.90
23556;DHT22;11956;53.184;8.578;2022-10-16T00:09:59;13.30;99.90
23556;DHT22;11956;53.184;8.578;2022-10-16T00:13:00;13.30;99.90
23556;DHT22;11956;53.184;8.578;2022-10-16T00:16:01;13.30;99.90
23556;DHT22;11956;53.184;8.578;2022-10-16T00:19:03;13.30;99.90
23556;DHT22;11956;53.184;8.578;2022-10-16T00:22:04;13.20;99.90
23556;DHT22;11956;53.184;8.578;2022-10-16T00:25:05;13.20;99.90
23556;DHT22;11956;53.184;8.578;2022-10-16T00:28:06;13.20;99.90
23556;DHT22;11956;53.184;8.578;2022-10-16T00:31:11;13.20;99.90
23556;DHT22;11956;53.184;8.578;2022-10-16T00:34:12;13.10;99.90
23556;DHT22;11956;53.184;8.578;2022-10-16T00:37:13;13.00;99.90
23556;DHT22;11956;53.184;8.578;2022-10-16T00:40:14;13.00;99.90
23556;DHT22;11956;53.184;8.578;2022-10-16T00:47:28;12.90;99.90
23556;DHT22;11956;53.184;8.578;2022-10-16T00:50:33;12.90;99.90
23556;DHT22;11956;53.184;8.578;2022-10-16T00:53:35;12.80;99.90
23556;DHT22;11956;53.184;8.578;2022-10-16T00:56:36;12.80;99.90
23556;DHT22;11956;53.184;8.578;2022-10-16T00:59:39;12.80;99.90
23556;DHT22;11956;53.184;8.578;2022-10-16T01:02:41;12.80;99.90
23556;DHT22;11956;53.184;8.578;2022-10-16T01:05:50;12.80;99.90
23556;DHT22;11956;53.184;8.578;2022-10-16T01:15:47;12.70;99.90
23556;DHT22;11956;53.184;8.578;2022-10-16T01:18:59;12.70;99.90
23556;DHT22;11956;53.184;8.578;2022-10-16T01:22:06;12.60;99.90
23556;DHT22;11956;53.184;8.578;2022-10-16T01:25:16;12.50;99.90
23556;DHT22;11956;53.184;8.578;2022-10-16T01:28:28;12.50;99.90
23556;DHT22;11956;53.184;8.578;2022-10-16T01:31:38;12.40;99.90
23556;DHT22;11956;53.184;8.578;2022-10-16T01:38:26;12.30;99.90
23556;DHT22;11956;53.184;8.578;2022-10-16T01:41:47;12.20;99.90
23556;DHT22;11956;53.184;8.578;2022-10-16T01:44:51;12.20;99.90
23556;DHT22;11956;53.184;8.578;2022-10-16T01:47:53;12.20;99.90
23556;DHT22;11956;53.184;8.578;2022-10-16T01:51:11;12.20;99.90
23556;DHT22;11956;53.184;8.578;2022-10-16T01:54:14;12.20;99.90
23556;DHT22;11956;53.184;8.578;2022-10-16T01:57:16;12.20;99.90
23556;DHT22;11956;53.184;8.578;2022-10-16T02:00:20;12.20;99.90
23556;DHT22;11956;53.184;8.578;2022-10-16T02:03:22;12.20;99.90
23556;DHT22;11956;53.184;8.578;2022-10-16T02:06:23;12.20;99.90
23556;DHT22;11956;53.184;8.578;2022-10-16T02:09:25;12.30;99.90
23556;DHT22;11956;53.184;8.578;2022-10-16T02:12:32;12.40;99.90
23556;DHT22;11956;53.184;8.578;2022-10-16T02:15:34;12.40;99.90
23556;DHT22;11956;53.184;8.578;2022-10-16T02:18:35;12.40;99.90
23556;DHT22;11956;53.184;8.578;2022-10-16T02:21:48;12.50;99.90
23556;DHT22;11956;53.184;8.578;2022-10-16T02:28:06;12.50;99.90
23556;DHT22;11956;53.184;8.578;2022-10-16T02:31:11;12.50;99.90
23556;DHT22;11956;53.184;8.578;2022-10-16T02:34:14;12.50;99.90
23556;DHT22;11956;53.184;8.578;2022-10-16T02:37:17;12.60;99.90
23556;DHT22;11956;53.184;8.578;2022-10-16T02:40:20;12.60;99.90
23556;DHT22;11956;53.184;8.578;2022-10-16T02:43:21;12.70;99.90
23556;DHT22;11956;53.184;8.578;2022-10-16T02:46:22;12.70;99.90
23556;DHT22;11956;53.184;8.578;2022-10-16T02:49:23;12.80;99.90
23556;DHT22;11956;53.184;8.578;2022-10-16T02:52:23;12.80;99.90
23556;DHT22;11956;53.184;8.578;2022-10-16T02:55:24;12.90;99.90
23556;DHT22;11956;53.184;8.578;2022-10-16T02:58:26;12.90;99.90
23556;DHT22;11956;53.184;8.578;2022-10-16T03:01:27;13.00;99.90
23556;DHT22;11956;53.184;8.578;2022-10-16T03:04:28;13.00;99.90
23556;DHT22;11956;53.184;8.578;2022-10-16T03:07:29;13.00;99.90
23556;DHT22;11956;53.184;8.578;2022-10-16T03:10:30;13.00;99.90
23556;DHT22;11956;53.184;8.578;2022-10-16T03:13:31;13.10;99.90
23556;DHT22;11956;53.184;8.578;2022-10-16T03:16:32;13.10;99.90
23556;DHT22;11956;53.184;8.578;2022-10-16T03:19:33;13.10;99.90
23556;DHT22;11956;53.184;8.578;2022-10-16T03:22:34;13.10;99.90
23556;DHT22;11956;53.184;8.578;2022-10-16T03:25:35;13.10;99.90
23556;DHT22;11956;53.184;8.578;2022-10-16T03:28:36;13.10;99.90
23556;DHT22;11956;53.184;8.578;2022-10-16T03:31:37;13.20;99.90
23556;DHT22;11956;53.184;8.578;2022-10-16T03:34:38;13.20;99.90
23556;DHT22;11956;53.184;8.578;2022-10-16T03:37:38;13.20;99.90
23556;DHT22;11956;53.184;8.578;2022-10-16T03:40:39;13.20;99.90
23556;DHT22;11956;53.184;8.578;2022-10-16T03:43:40;13.10;99.90
23556;DHT22;11956;53.184;8.578;2022-10-16T03:46:41;13.00;99.90
23556;DHT22;11956;53.184;8.578;2022-10-16T03:49:42;13.00;99.90
23556;DHT22;11956;53.184;8.578;2022-10-16T03:52:43;12.90;99.90
23556;DHT22;11956;53.184;8.578;2022-10-16T03:55:44;12.90;99.90
23556;DHT22;11956;53.184;8.578;2022-10-16T03:58:45;12.90;99.90
23556;DHT22;11956;53.184;8.578;2022-10-16T04:01:46;12.80;99.90
23556;DHT22;11956;53.184;8.578;2022-10-16T04:04:47;12.80;99.90
23556;DHT22;11956;53.184;8.578;2022-10-16T04:07:48;12.80;99.90
23556;DHT22;11956;53.184;8.578;2022-10-16T04:10:48;12.80;99.90
23556;DHT22;11956;53.184;8.578;2022-10-16T04:13:49;12.90;99.90
23556;DHT22;11956;53.184;8.578;2022-10-16T04:16:50;12.80;99.90
23556;DHT22;11956;53.184;8.578;2022-10-16T04:19:51;12.90;99.90
23556;DHT22;11956;53.184;8.578;2022-10-16T04:22:52;12.90;99.90
23556;DHT22;11956;53.184;8.578;2022-10-16T04:25:53;12.90;99.90
23556;DHT22;11956;53.184;8.578;2022-10-16T04:28:54;13.00;99.90
23556;DHT22;11956;53.184;8.578;2022-10-16T04:31:55;13.10;99.90
23556;DHT22;11956;53.184;8.578;2022-10-16T04:34:55;13.10;99.90
23556;DHT22;11956;53.184;8.578;2022-10-16T04:37:59;13.10;99.90
23556;DHT22;11956;53.184;8.578;2022-10-16T04:41:00;13.10;99.90
23556;DHT22;11956;53.184;8.578;2022-10-16T04:44:01;13.10;99.90
23556;DHT22;11956;53.184;8.578;2022-10-16T04:47:02;13.20;99.90
23556;DHT22;11956;53.184;8.578;2022-10-16T04:50:03;13.20;99.90
23556;DHT22;11956;53.184;8.578;2022-10-16T04:53:05;13.20;99.90
23556;DHT22;11956;53.184;8.578;2022-10-16T04:56:06;13.30;99.90
23556;DHT22;11956;53.184;8.578;2022-10-16T04:59:07;13.40;99.90
23556;DHT22;11956;53.184;8.578;2022-10-16T05:02:08;13.40;99.90
23556;DHT22;11956;53.184;8.578;2022-10-16T05:05:09;13.40;99.90
23556;DHT22;11956;53.184;8.578;2022-10-16T05:08:12;13.50;99.90
23556;DHT22;11956;53.184;8.578;2022-10-16T05:11:14;13.50;99.90
23556;DHT22;11956;53.184;8.578;2022-10-16T05:14:14;13.50;99.90
23556;DHT22;11956;53.184;8.578;2022-10-16T05:17:16;13.50;99.90
23556;DHT22;11956;53.184;8.578;2022-10-16T05:20:17;13.50;99.90
23556;DHT22;11956;53.184;8.578;2022-10-16T05:23:18;13.50;99.90
23556;DHT22;11956;53.184;8.578;2022-10-16T05:26:18;13.40;99.90
23556;DHT22;11956;53.184;8.578;2022-10-16T05:29:20;13.50;99.90
23556;DHT22;11956;53.184;8.578;2022-10-16T05:32:21;13.40;99.90
23556;DHT22;11956;53.184;8.578;2022-10-16T05:35:22;13.40;99.90
23556;DHT22;11956;53.184;8.578;2022-10-16T05:38:23;13.50;99.90
23556;DHT22;11956;53.184;8.578;2022-10-16T05:41:24;13.50;99.90
23556;DHT22;11956;53.184;8.578;2022-10-16T05:44:26;13.50;99.90
23556;DHT22;11956;53.184;8.578;2022-10-16T05:47:27;13.40;99.90
23556;DHT22;11956;53.184;8.578;2022-10-16T05:50:28;13.40;99.90
23556;DHT22;11956;53.184;8.578;2022-10-16T05:53:30;13.40;99.90
23556;DHT22;11956;53.184;8.578;2022-10-16T05:56:32;13.40;99.90
23556;DHT22;11956;53.184;8.578;2022-10-16T05:59:33;13.40;99.90
23556;DHT22;11956;53.184;8.578;2022-10-16T06:02:34;13.50;99.90
23556;DHT22;11956;53.184;8.578;2022-10-16T06:05:35;13.50;99.90
23556;DHT22;11956;53.184;8.578;2022-10-16T06:08:37;13.50;99.90
23556;DHT22;11956;53.184;8.578;2022-10-16T06:11:38;13.50;99.90
23556;DHT22;11956;53.184;8.578;2022-10-16T06:14:39;13.50;99.90
23556;DHT22;11956;53.184;8.578;2022-10-16T06:17:40;13.50;99.90
23556;DHT22;11956;53.184;8.578;2022-10-16T06:20:41;13.50;99.90
23556;DHT22;11956;53.184;8.578;2022-10-16T06:23:43;13.50;99.90
23556;DHT22;11956;53.184;8.578;2022-10-16T06:26:46;13.50;99.90
23556;DHT22;11956;53.184;8.578;2022-10-16T06:29:47;13.40;99.90
23556;DHT22;11956;53.184;8.578;2022-10-16T06:32:48;13.40;99.90
23556;DHT22;11956;53.184;8.578;2022-10-16T06:35:48;13.40;99.90
23556;DHT22;11956;53.184;8.578;2022-10-16T06:38:49;13.50;99.90
23556;DHT22;11956;53.184;8.578;2022-10-16T06:41:50;13.50;99.90
23556;DHT22;11956;53.184;8.578;2022-10-16T06:44:51;13.50;99.90
23556;DHT22;11956;53.184;8.578;2022-10-16T06:47:52;13.60;99.90
23556;DHT22;11956;53.184;8.578;2022-10-16T06:51:00;13.60;99.90
23556;DHT22;11956;53.184;8.578;2022-10-16T06:54:02;13.70;99.90
23556;DHT22;11956;53.184;8.578;2022-10-16T06:57:03;13.80;99.90
23556;DHT22;11956;53.184;8.578;2022-10-16T07:00:05;13.90;99.90
23556;DHT22;11956;53.184;8.578;2022-10-16T07:03:06;14.20;99.90
23556;DHT22;11956;53.184;8.578;2022-10-16T07:06:08;14.70;99.90
23556;DHT22;11956;53.184;8.578;2022-10-16T07:09:11;15.10;99.90
23556;DHT22;11956;53.184;8.578;2022-10-16T07:12:12;15.20;99.90
23556;DHT22;11956;53.184;8.578;2022-10-16T07:15:13;15.30;99.90
23556;DHT22;11956;53.184;8.578;2022-10-16T07:18:14;15.50;99.90
23556;DHT22;11956;53.184;8.578;2022-10-16T07:21:16;15.90;99.90
23556;DHT22;11956;53.184;8.578;2022-10-16T07:24:18;16.30;99.90
23556;DHT22;11956;53.184;8.578;2022-10-16T07:27:19;16.10;99.90
23556;DHT22;11956;53.184;8.578;2022-10-16T07:30:22;15.60;99.90
23556;DHT22;11956;53.184;8.578;2022-10-16T07:33:23;15.40;99.90
23556;DHT22;11956;53.184;8.578;2022-10-16T07:36:24;15.20;99.90
23556;DHT22;11956;53.184;8.578;2022-10-16T07:39:25;15.10;99.90
23556;DHT22;11956;53.184;8.578;2022-10-16T07:42:27;15.10;99.90
23556;DHT22;11956;53.184;8.578;2022-10-16T07:45:28;15.10;99.90
23556;DHT22;11956;53.184;8.578;2022-10-16T07:48:32;15.70;99.90
23556;DHT22;11956;53.184;8.578;2022-10-16T07:51:34;16.70;99.90
23556;DHT22;11956;53.184;8.578;2022-10-16T07:54:35;17.30;99.90
23556;DHT22;11956;53.184;8.578;2022-10-16T07:57:36;17.10;99.90
23556;DHT22;11956;53.184;8.578;2022-10-16T08:00:37;17.00;99.90
23556;DHT22;11956;53.184;8.578;2022-10-16T08:03:38;16.80;99.90
23556;DHT22;11956;53.184;8.578;2022-10-16T08:06:42;16.90;99.90
23556;DHT22;11956;53.184;8.578;2022-10-16T08:09:43;17.40;99.90
23556;DHT22;11956;53.184;8.578;2022-10-16T08:12:44;18.00;99.90
23556;DHT22;11956;53.184;8.578;2022-10-16T08:15:45;18.00;99.90
23556;DHT22;11956;53.184;8.578;2022-10-16T08:18:46;17.90;99.90
23556;DHT22;11956;53.184;8.578;2022-10-16T08:21:47;17.70;99.90
23556;DHT22;11956;53.184;8.578;2022-10-16T08:24:48;17.80;99.90
23556;DHT22;11956;53.184;8.578;2022-10-16T08:27:50;18.70;99.90
23556;DHT22;11956;53.184;8.578;2022-10-16T08:30:51;20.40;99.90
23556;DHT22;11956;53.184;8.578;2022-10-16T08:33:52;21.40;99.90
23556;DHT22;11956;53.184;8.578;2022-10-16T08:36:53;21.00;99.90
23556;DHT22;11956;53.184;8.578;2022-10-16T08:39:55;21.80;99.90
23556;DHT22;11956;53.184;8.578;2022-10-16T08:49:59;24.40;99.90
23556;DHT22;11956;53.184;8.578;2022-10-16T08:53:04;24.60;99.90
23556;DHT22;11956;53.184;8.578;2022-10-16T08:56:06;23.70;99.90
23556;DHT22;11956;53.184;8.578;2022-10-16T08:59:10;23.80;99.90
23556;DHT22;11956;53.184;8.578;2022-10-16T09:02:32;25.00;99.90
23556;DHT22;11956;53.184;8.578;2022-10-16T09:17:06;23.90;99.90
23556;DHT22;11956;53.184;8.578;2022-10-16T09:24:12;20.70;99.90
23556;DHT22;11956;53.184;8.578;2022-10-16T09:27:19;20.00;99.90
23556;DHT22;11956;53.184;8.578;2022-10-16T09:30:21;19.50;99.90
23556;DHT22;11956;53.184;8.578;2022-10-16T09:33:25;19.30;99.90
23556;DHT22;11956;53.184;8.578;2022-10-16T09:36:43;19.50;99.90
23556;DHT22;11956;53.184;8.578;2022-10-16T09:39:47;20.00;99.90
23556;DHT22;11956;53.184;8.578;2022-10-16T09:42:49;20.10;99.90
23556;DHT22;11956;53.184;8.578;2022-10-16T09:45:59;20.20;99.90
23556;DHT22;11956;53.184;8.578;2022-10-16T09:49:16;20.30;99.90
23556;DHT22;11956;53.184;8.578;2022-10-16T09:52:19;21.70;99.90
23556;DHT22;11956;53.184;8.578;2022-10-16T09:55:20;23.40;99.90
23556;DHT22;11956;53.184;8.578;2022-10-16T09:58:22;23.90;99.90
23556;DHT22;11956;53.184;8.578;2022-10-16T10:01:50;24.90;99.90
23556;DHT22;11956;53.184;8.578;2022-10-16T10:04:53;24.90;99.90
23556;DHT22;11956;53.184;8.578;2022-10-16T10:07:57;25.10;99.90
23556;DHT22;11956;53.184;8.578;2022-10-16T10:10:59;26.10;98.60
23556;DHT22;11956;53.184;8.578;2022-10-16T10:17:22;27.10;96.40
23556;DHT22;11956;53.184;8.578;2022-10-16T10:23:39;26.40;96.70
23556;DHT22;11956;53.184;8.578;2022-10-16T10:27:03;24.70;98.80
23556;DHT22;11956;53.184;8.578;2022-10-16T10:30:25;23.90;99.90
23556;DHT22;11956;53.184;8.578;2022-10-16T10:37:04;21.90;99.90
23556;DHT22;11956;53.184;8.578;2022-10-16T11:02:26;19.40;99.90
23556;DHT22;11956;53.184;8.578;2022-10-16T11:12:45;19.20;99.90
23556;DHT22;11956;53.184;8.578;2022-10-16T11:15:52;19.30;99.90
23556;DHT22;11956;53.184;8.578;2022-10-16T11:25:43;19.30;99.90
23556;DHT22;11956;53.184;8.578;2022-10-16T11:28:50;19.30;99.90
23556;DHT22;11956;53.184;8.578;2022-10-16T11:31:57;19.30;99.90
23556;DHT22;11956;53.184;8.578;2022-10-16T11:35:08;19.40;99.90
23556;DHT22;11956;53.184;8.578;2022-10-16T11:41:44;19.20;99.90
23556;DHT22;11956;53.184;8.578;2022-10-16T11:44:57;19.20;99.90
23556;DHT22;11956;53.184;8.578;2022-10-16T11:51:48;19.20;99.90
23556;DHT22;11956;53.184;8.578;2022-10-16T11:55:05;19.40;99.90
23556;DHT22;11956;53.184;8.578;2022-10-16T12:01:43;19.70;99.90
23556;DHT22;11956;53.184;8.578;2022-10-16T12:05:04;20.00;99.90
23556;DHT22;11956;53.184;8.578;2022-10-16T12:08:13;20.00;99.90
23556;DHT22;11956;53.184;8.578;2022-10-16T12:17:43;20.00;99.90
23556;DHT22;11956;53.184;8.578;2022-10-16T12:20:57;19.80;99.90
23556;DHT22;11956;53.184;8.578;2022-10-16T12:24:06;19.50;99.90
23556;DHT22;11956;53.184;8.578;2022-10-16T12:30:33;19.70;99.90
23556;DHT22;11956;53.184;8.578;2022-10-16T12:33:37;19.70;99.90
23556;DHT22;11956;53.184;8.578;2022-10-16T12:37:30;19.80;99.90
23556;DHT22;11956;53.184;8.578;2022-10-16T12:40:37;20.00;99.90
23556;DHT22;11956;53.184;8.578;2022-10-16T12:43:43;20.10;99.90
23556;DHT22;11956;53.184;8.578;2022-10-16T12:46:46;20.00;99.90
23556;DHT22;11956;53.184;8.578;2022-10-16T12:49:52;19.70;99.90
23556;DHT22;11956;53.184;8.578;2022-10-16T12:52:54;19.40;99.90
23556;DHT22;11956;53.184;8.578;2022-10-16T13:06:30;18.80;99.90
23556;DHT22;11956;53.184;8.578;2022-10-16T13:23:42;18.90;99.90
23556;DHT22;11956;53.184;8.578;2022-10-16T13:30:29;18.90;99.90
23556;DHT22;11956;53.184;8.578;2022-10-16T13:33:41;18.80;99.90
23556;DHT22;11956;53.184;8.578;2022-10-16T13:36:45;18.70;99.90
23556;DHT22;11956;53.184;8.578;2022-10-16T13:39:48;18.70;99.90
23556;DHT22;11956;53.184;8.578;2022-10-16T13:42:52;18.60;99.90
23556;DHT22;11956;53.184;8.578;2022-10-16T13:45:55;18.50;99.90
23556;DHT22;11956;53.184;8.578;2022-10-16T13:48:58;18.50;99.90
23556;DHT22;11956;53.184;8.578;2022-10-16T13:52:00;18.60;99.90
23556;DHT22;11956;53.184;8.578;2022-10-16T13:55:01;18.60;99.90
23556;DHT22;11956;53.184;8.578;2022-10-16T13:58:12;18.60;99.90
23556;DHT22;11956;53.184;8.578;2022-10-16T14:01:20;18.50;99.90
23556;DHT22;11956;53.184;8.578;2022-10-16T14:04:25;18.40;99.90
23556;DHT22;11956;53.184;8.578;2022-10-16T14:07:30;18.30;99.90
23556;DHT22;11956;53.184;8.578;2022-10-16T14:10:33;18.30;99.90
23556;DHT22;11956;53.184;8.578;2022-10-16T14:13:39;18.30;99.90
23556;DHT22;11956;53.184;8.578;2022-10-16T14:16:44;18.20;99.90
23556;DHT22;11956;53.184;8.578;2022-10-16T14:19:47;18.20;99.90
23556;DHT22;11956;53.184;8.578;2022-10-16T14:22:59;18.20;99.90
23556;DHT22;11956;53.184;8.578;2022-10-16T14:29:17;18.10;99.90
23556;DHT22;11956;53.184;8.578;2022-10-16T14:32:26;18.10;99.90
23556;DHT22;11956;53.184;8.578;2022-10-16T14:35:39;18.00;99.90
23556;DHT22;11956;53.184;8.578;2022-10-16T14:38:53;18.00;99.90
23556;DHT22;11956;53.184;8.578;2022-10-16T14:41:58;18.00;99.90
23556;DHT22;11956;53.184;8.578;2022-10-16T14:44:59;18.10;99.90
23556;DHT22;11956;53.184;8.578;2022-10-16T14:48:03;18.00;99.90
23556;DHT22;11956;53.184;8.578;2022-10-16T14:51:13;18.10;99.90
23556;DHT22;11956;53.184;8.578;2022-10-16T14:54:16;18.10;99.90
23556;DHT22;11956;53.184;8.578;2022-10-16T14:57:20;18.00;99.90
23556;DHT22;11956;53.184;8.578;2022-10-16T15:00:24;18.00;99.90
23556;DHT22;11956;53.184;8.578;2022-10-16T15:03:25;17.90;99.90
23556;DHT22;11956;53.184;8.578;2022-10-16T15:06:25;17.80;99.90
23556;DHT22;11956;53.184;8.578;2022-10-16T15:09:26;17.70;99.90
23556;DHT22;11956;53.184;8.578;2022-10-16T15:12:27;17.60;99.90
23556;DHT22;11956;53.184;8.578;2022-10-16T15:18:37;17.50;99.90
23556;DHT22;11956;53.184;8.578;2022-10-16T15:21:38;17.40;99.90
23556;DHT22;11956;53.184;8.578;2022-10-16T15:24:39;17.40;99.90
23556;DHT22;11956;53.184;8.578;2022-10-16T15:27:40;17.30;99.90
23556;DHT22;11956;53.184;8.578;2022-10-16T15:30:41;17.20;99.90
23556;DHT22;11956;53.184;8.578;2022-10-16T15:33:43;17.20;99.90
23556;DHT22;11956;53.184;8.578;2022-10-16T15:36:44;17.10;99.90
23556;DHT22;11956;53.184;8.578;2022-10-16T15:39:45;17.00;99.90
23556;DHT22;11956;53.184;8.578;2022-10-16T15:42:46;17.00;99.90
23556;DHT22;11956;53.184;8.578;2022-10-16T15:46:00;16.90;99.90
23556;DHT22;11956;53.184;8.578;2022-10-16T15:49:04;16.80;99.90
23556;DHT22;11956;53.184;8.578;2022-10-16T15:52:05;16.70;99.90
23556;DHT22;11956;53.184;8.578;2022-10-16T15:55:11;16.60;99.90
23556;DHT22;11956;53.184;8.578;2022-10-16T15:58:13;16.60;99.90
23556;DHT22;11956;53.184;8.578;2022-10-16T16:01:14;16.50;99.90
23556;DHT22;11956;53.184;8.578;2022-10-16T16:04:14;16.40;99.90
23556;DHT22;11956;53.184;8.578;2022-10-16T16:07:17;16.30;99.90
23556;DHT22;11956;53.184;8.578;2022-10-16T16:10:18;16.20;99.90
23556;DHT22;11956;53.184;8.578;2022-10-16T16:13:21;16.10;99.90
23556;DHT22;11956;53.184;8.578;2022-10-16T16:16:22;15.90;99.90
23556;DHT22;11956;53.184;8.578;2022-10-16T16:19:23;15.80;99.90
23556;DHT22;11956;53.184;8.578;2022-10-16T16:22:23;15.60;99.90
23556;DHT22;11956;53.184;8.578;2022-10-16T16:25:24;15.50;99.90
23556;DHT22;11956;53.184;8.578;2022-10-16T16:28:25;15.30;99.90
23556;DHT22;11956;53.184;8.578;2022-10-16T16:31:28;15.10;99.90
23556;DHT22;11956;53.184;8.578;2022-10-16T16:34:29;14.90;99.90
23556;DHT22;11956;53.184;8.578;2022-10-16T16:37:31;14.80;99.90
23556;DHT22;11956;53.184;8.578;2022-10-16T16:40:32;14.70;99.90
23556;DHT22;11956;53.184;8.578;2022-10-16T16:43:33;14.50;99.90
23556;DHT22;11956;53.184;8.578;2022-10-16T16:46:35;14.40;99.90
23556;DHT22;11956;53.184;8.578;2022-10-16T16:49:36;14.30;99.90
23556;DHT22;11956;53.184;8.578;2022-10-16T16:52:36;14.20;99.90
23556;DHT22;11956;53.184;8.578;2022-10-16T16:55:37;14.10;99.90
23556;DHT22;11956;53.184;8.578;2022-10-16T16:58:39;14.00;99.90
23556;DHT22;11956;53.184;8.578;2022-10-16T17:01:40;13.80;99.90
23556;DHT22;11956;53.184;8.578;2022-10-16T17:04:41;13.70;99.90
23556;DHT22;11956;53.184;8.578;2022-10-16T17:07:42;13.60;99.90
23556;DHT22;11956;53.184;8.578;2022-10-16T17:10:44;13.50;99.90
23556;DHT22;11956;53.184;8.578;2022-10-16T17:13:45;13.40;99.90
23556;DHT22;11956;53.184;8.578;2022-10-16T17:16:46;13.30;99.90
23556;DHT22;11956;53.184;8.578;2022-10-16T17:19:51;13.20;99.90
23556;DHT22;11956;53.184;8.578;2022-10-16T17:22:52;13.10;99.90
23556;DHT22;11956;53.184;8.578;2022-10-16T17:25:53;13.00;99.90
23556;DHT22;11956;53.184;8.578;2022-10-16T17:28:57;13.00;99.90
23556;DHT22;11956;53.184;8.578;2022-10-16T17:31:59;12.90;99.90
23556;DHT22;11956;53.184;8.578;2022-10-16T17:34:59;12.90;99.90
23556;DHT22;11956;53.184;8.578;2022-10-16T17:38:00;12.70;99.90
23556;DHT22;11956;53.184;8.578;2022-10-16T17:41:22;12.70;99.90
23556;DHT22;11956;53.184;8.578;2022-10-16T17:44:24;12.60;99.90
23556;DHT22;11956;53.184;8.578;2022-10-16T17:47:24;12.50;99.90
23556;DHT22;11956;53.184;8.578;2022-10-16T17:50:25;12.40;99.90
23556;DHT22;11956;53.184;8.578;2022-10-16T17:53:26;12.40;99.90
23556;DHT22;11956;53.184;8.578;2022-10-16T17:56:29;12.40;99.90
23556;DHT22;11956;53.184;8.578;2022-10-16T17:59:30;12.30;99.90
23556;DHT22;11956;53.184;8.578;2022-10-16T18:02:31;12.30;99.90
23556;DHT22;11956;53.184;8.578;2022-10-16T18:05:36;12.20;99.90
23556;DHT22;11956;53.184;8.578;2022-10-16T18:08:37;12.20;99.90
23556;DHT22;11956;53.184;8.578;2022-10-16T18:11:39;12.20;99.90
23556;DHT22;11956;53.184;8.578;2022-10-16T18:14:40;12.20;99.90
23556;DHT22;11956;53.184;8.578;2022-10-16T18:17:42;12.20;99.90
23556;DHT22;11956;53.184;8.578;2022-10-16T18:20:43;12.20;99.90
23556;DHT22;11956;53.184;8.578;2022-10-16T18:23:44;12.20;99.90
23556;DHT22;11956;53.184;8.578;2022-10-16T18:26:48;12.00;99.90
23556;DHT22;11956;53.184;8.578;2022-10-16T18:29:50;12.00;99.90
23556;DHT22;11956;53.184;8.578;2022-10-16T18:32:56;11.90;99.90
23556;DHT22;11956;53.184;8.578;2022-10-16T18:36:08;11.80;99.90
23556;DHT22;11956;53.184;8.578;2022-10-16T18:39:10;11.80;99.90
23556;DHT22;11956;53.184;8.578;2022-10-16T18:42:12;11.80;99.90
23556;DHT22;11956;53.184;8.578;2022-10-16T18:45:13;11.70;99.90
23556;DHT22;11956;53.184;8.578;2022-10-16T18:48:14;11.70;99.90
23556;DHT22;11956;53.184;8.578;2022-10-16T18:51:34;11.70;99.90
23556;DHT22;11956;53.184;8.578;2022-10-16T18:54:36;11.60;99.90
23556;DHT22;11956;53.184;8.578;2022-10-16T18:57:37;11.60;99.90
23556;DHT22;11956;53.184;8.578;2022-10-16T19:00:38;11.50;99.90
23556;DHT22;11956;53.184;8.578;2022-10-16T19:03:40;11.60;99.90
23556;DHT22;11956;53.184;8.578;2022-10-16T19:06:44;11.60;99.90
23556;DHT22;11956;53.184;8.578;2022-10-16T19:09:46;11.60;99.90
23556;DHT22;11956;53.184;8.578;2022-10-16T19:12:47;11.60;99.90
23556;DHT22;11956;53.184;8.578;2022-10-16T19:15:48;11.60;99.90
23556;DHT22;11956;53.184;8.578;2022-10-16T19:18:52;11.60;99.90
23556;DHT22;11956;53.184;8.578;2022-10-16T19:21:54;11.60;99.90
23556;DHT22;11956;53.184;8.578;2022-10-16T19:25:10;11.60;99.90
23556;DHT22;11956;53.184;8.578;2022-10-16T19:28:11;11.50;99.90
23556;DHT22;11956;53.184;8.578;2022-10-16T19:31:14;11.50;99.90
23556;DHT22;11956;53.184;8.578;2022-10-16T19:34:17;11.50;99.90
23556;DHT22;11956;53.184;8.578;2022-10-16T19:37:18;11.50;99.90
23556;DHT22;11956;53.184;8.578;2022-10-16T19:40:25;11.50;99.90
23556;DHT22;11956;53.184;8.578;2022-10-16T19:43:26;11.50;99.90
23556;DHT22;11956;53.184;8.578;2022-10-16T19:46:27;11.40;99.90
23556;DHT22;11956;53.184;8.578;2022-10-16T19:49:28;11.30;99.90
23556;DHT22;11956;53.184;8.578;2022-10-16T19:52:29;11.30;99.90
23556;DHT22;11956;53.184;8.578;2022-10-16T19:55:31;11.40;99.90
23556;DHT22;11956;53.184;8.578;2022-10-16T19:58:32;11.30;99.90
23556;DHT22;11956;53.184;8.578;2022-10-16T20:01:33;11.30;99.90
23556;DHT22;11956;53.184;8.578;2022-10-16T20:04:34;11.30;99.90
23556;DHT22;11956;53.184;8.578;2022-10-16T20:07:35;11.30;99.90
23556;DHT22;11956;53.184;8.578;2022-10-16T20:10:36;11.30;99.90
23556;DHT22;11956;53.184;8.578;2022-10-16T20:13:37;11.30;99.90
23556;DHT22;11956;53.184;8.578;2022-10-16T20:16:39;11.30;99.90
23556;DHT22;11956;53.184;8.578;2022-10-16T20:19:40;11.30;99.90
23556;DHT22;11956;53.184;8.578;2022-10-16T20:22:41;11.40;99.90
23556;DHT22;11956;53.184;8.578;2022-10-16T20:25:42;11.50;99.90
23556;DHT22;11956;53.184;8.578;2022-10-16T20:28:44;11.40;99.90
23556;DHT22;11956;53.184;8.578;2022-10-16T20:31:45;11.40;99.90
23556;DHT22;11956;53.184;8.578;2022-10-16T20:34:46;11.50;99.90
23556;DHT22;11956;53.184;8.578;2022-10-16T20:37:48;11.50;99.90
23556;DHT22;11956;53.184;8.578;2022-10-16T20:40:50;11.40;99.90
23556;DHT22;11956;53.184;8.578;2022-10-16T20:43:51;11.40;99.90
23556;DHT22;11956;53.184;8.578;2022-10-16T20:46:56;11.40;99.90
23556;DHT22;11956;53.184;8.578;2022-10-16T20:49:57;11.50;99.90
23556;DHT22;11956;53.184;8.578;2022-10-16T20:52:58;11.40;99.90
23556;DHT22;11956;53.184;8.578;2022-10-16T20:56:00;11.40;99.90
23556;DHT22;11956;53.184;8.578;2022-10-16T20:59:01;11.40;99.90
23556;DHT22;11956;53.184;8.578;2022-10-16T21:02:02;11.40;99.90
23556;DHT22;11956;53.184;8.578;2022-10-16T21:05:05;11.30;99.90
23556;DHT22;11956;53.184;8.578;2022-10-16T21:08:06;11.40;99.90
23556;DHT22;11956;53.184;8.578;2022-10-16T21:11:16;11.40;99.90
23556;DHT22;11956;53.184;8.578;2022-10-16T21:14:18;11.40;99.90
23556;DHT22;11956;53.184;8.578;2022-10-16T21:17:19;11.50;99.90
23556;DHT22;11956;53.184;8.578;2022-10-16T21:20:19;11.50;99.90
23556;DHT22;11956;53.184;8.578;2022-10-16T21:23:20;11.60;99.90
23556;DHT22;11956;53.184;8.578;2022-10-16T21:26:22;11.60;99.90
23556;DHT22;11956;53.184;8.578;2022-10-16T21:29:25;11.70;99.90
23556;DHT22;11956;53.184;8.578;2022-10-16T21:32:26;11.70;99.90
23556;DHT22;11956;53.184;8.578;2022-10-16T21:35:29;11.80;99.90
23556;DHT22;11956;53.184;8.578;2022-10-16T21:38:30;11.90;99.90